Time;durP1;ratioP1;P1;durP2;ratioP2;P2;SDS_P1;SDS_P2;PMS_P1;PMS_P2;Temp;Humidity;BMP_temperature;BMP_pressure;BME280_temperature;BME280_humidity;BME280_pressure;Samples;Min_cycle;Max_cycle;Signal;HPM_P1;HPM_P2
2021/10/16 00:00:58;;;;;;;37.20;21.25;;;;;;;7.88;75.04;100587.27;1784615;80;21342;-74
2021/10/16 00:04:03;;;;;;;31.90;19.67;;;;;;;7.88;75.02;100594.07;1785249;80;21754;-75
2021/10/16 00:07:09;;;;;;;35.58;20.72;;;;;;;7.90;75.03;100596.16;1783635;80;21179;-75
2021/10/16 00:10:14;;;;;;;33.10;20.90;;;;;;;7.92;74.97;100588.67;1784204;80;21218;-74
2021/10/16 00:13:20;;;;;;;36.38;20.32;;;;;;;7.94;74.84;100585.28;1785287;80;21298;-74
2021/10/16 00:16:25;;;;;;;37.63;21.62;;;;;;;7.97;74.59;100580.56;1784042;80;21885;-74
2021/10/16 00:19:31;;;;;;;34.15;20.25;;;;;;;7.96;74.47;100578.84;1785156;80;21841;-74
2021/10/16 00:22:37;;;;;;;36.88;21.87;;;;;;;7.94;74.42;100573.53;1785162;80;21231;-75
2021/10/16 00:25:43;;;;;;;38.40;20.90;;;;;;;7.92;74.46;100561.44;1784105;80;21325;-76
2021/10/16 00:28:49;;;;;;;42.43;20.35;;;;;;;7.92;74.46;100558.72;1785276;80;21302;-75
2021/10/16 00:31:55;;;;;;;41.73;23.00;;;;;;;7.92;74.53;100558.72;1785305;80;21290;-75
2021/10/16 00:35:01;;;;;;;48.70;23.77;;;;;;;7.90;74.79;100559.86;1785195;80;21293;-74
2021/10/16 00:38:08;;;;;;;38.42;21.80;;;;;;;7.87;75.03;100556.95;1785212;80;21295;-75
2021/10/16 00:41:13;;;;;;;38.40;21.42;;;;;;;7.85;75.29;100558.96;1783781;80;21901;-75
2021/10/16 00:44:26;;;;;;;42.73;22.32;;;;;;;7.84;75.50;100559.13;1782591;80;21707;-75
2021/10/16 00:47:30;;;;;;;33.35;19.10;;;;;;;7.82;75.60;100561.16;1785263;80;21290;-74
2021/10/16 00:50:36;;;;;;;32.20;20.23;;;;;;;7.80;75.69;100553.62;1785317;80;21286;-74
2021/10/16 00:53:42;;;;;;;35.33;21.23;;;;;;;7.78;75.75;100557.88;1785212;80;21156;-75
2021/10/16 00:56:50;;;;;;;44.60;23.35;;;;;;;7.78;75.76;100559.23;1784398;80;21301;-76
2021/10/16 00:59:58;;;;;;;46.33;22.82;;;;;;;7.79;75.81;100560.94;1785425;80;21187;-76
2021/10/16 01:03:03;;;;;;;38.00;20.80;;;;;;;7.81;75.86;100554.86;1785343;80;21299;-76
2021/10/16 01:06:10;;;;;;;29.50;19.02;;;;;;;7.84;75.88;100555.04;1762613;80;21270;-76
2021/10/16 01:09:15;;;;;;;44.53;22.80;;;;;;;7.85;75.82;100549.94;1785266;80;21184;-76
2021/10/16 01:12:22;;;;;;;36.77;20.75;;;;;;;7.86;75.77;100546.23;1783635;80;21247;-76
2021/10/16 01:15:28;;;;;;;38.65;22.17;;;;;;;7.87;75.75;100543.85;1785231;80;21373;-76
2021/10/16 01:18:33;;;;;;;36.48;19.77;;;;;;;7.84;75.86;100547.72;1785121;80;21350;-76
2021/10/16 01:21:38;;;;;;;36.42;22.10;;;;;;;7.82;75.96;100540.22;1785322;80;21329;-76
2021/10/16 01:24:43;;;;;;;40.63;22.15;;;;;;;7.81;76.06;100536.27;1785343;80;21180;-76
2021/10/16 01:27:48;;;;;;;36.93;22.20;;;;;;;7.80;76.16;100529.97;1783781;80;21199;-77
2021/10/16 01:30:54;;;;;;;34.13;21.20;;;;;;;7.79;76.17;100528.77;1785404;80;21203;-76
2021/10/16 01:34:00;;;;;;;41.48;22.82;;;;;;;7.79;75.98;100532.86;1785099;80;21822;-77
2021/10/16 01:37:06;;;;;;;35.92;19.30;;;;;;;7.78;75.77;100532.52;1784575;80;21850;-77
2021/10/16 01:40:13;;;;;;;39.50;22.00;;;;;;;7.79;75.69;100531.49;1785239;80;21231;-75
2021/10/16 01:43:18;;;;;;;46.25;22.50;;;;;;;7.78;75.54;100528.42;1785334;80;21290;-76
2021/10/16 01:46:24;;;;;;;34.00;20.62;;;;;;;7.80;75.42;100530.48;1784088;80;21331;-76
2021/10/16 01:49:29;;;;;;;36.58;19.95;;;;;;;7.82;75.15;100536.14;1785548;80;21831;-76
2021/10/16 01:52:37;;;;;;;36.80;20.02;;;;;;;7.82;75.00;100533.92;1785617;80;21295;-75
2021/10/16 01:55:43;;;;;;;35.48;20.20;;;;;;;7.79;74.85;100529.63;1785477;80;21917;-75
2021/10/16 01:58:52;;;;;;;33.95;19.65;;;;;;;7.77;74.81;100533.02;1785534;80;21185;-75
2021/10/16 02:02:01;;;;;;;34.10;19.95;;;;;;;7.75;74.79;100528.21;1783084;80;21605;-74
2021/10/16 02:05:03;;;;;;;32.13;19.40;;;;;;;7.75;74.79;100525.49;1785521;80;21720;-74
2021/10/16 02:08:10;;;;;;;35.58;20.05;;;;;;;7.75;74.77;100522.77;1784354;80;21866;-74
2021/10/16 02:11:15;;;;;;;36.15;21.15;;;;;;;7.74;74.74;100518.34;1785193;80;21201;-74
2021/10/16 02:14:21;;;;;;;37.70;21.90;;;;;;;7.74;74.69;100514.25;1785712;80;21847;-74
2021/10/16 02:17:29;;;;;;;35.75;19.50;;;;;;;7.73;74.67;100507.61;1783912;80;21815;-75
2021/10/16 02:20:34;;;;;;;36.80;19.70;;;;;;;7.70;74.71;100504.67;1785532;80;21300;-75
2021/10/16 02:23:41;;;;;;;31.33;19.25;;;;;;;7.69;74.77;100505.69;1785435;80;21315;-75
2021/10/16 02:26:49;;;;;;;32.50;20.05;;;;;;;7.68;74.73;100503.98;1784487;80;21898;-76
2021/10/16 02:29:55;;;;;;;35.08;20.77;;;;;;;7.65;74.69;100503.77;1784157;80;21178;-75
2021/10/16 02:33:00;;;;;;;38.60;20.27;;;;;;;7.65;74.55;100505.64;1783969;80;21611;-75
2021/10/16 02:36:06;;;;;;;34.78;20.30;;;;;;;7.64;74.45;100502.57;1784146;80;21271;-76
2021/10/16 02:39:11;;;;;;;30.48;18.90;;;;;;;7.62;74.37;100498.66;1784123;80;21193;-75
2021/10/16 02:42:18;;;;;;;32.15;18.75;;;;;;;7.61;74.24;100500.14;1784806;80;21327;-75
2021/10/16 02:45:23;;;;;;;36.63;19.52;;;;;;;7.63;74.14;100503.59;1785312;79;21312;-75
2021/10/16 02:48:28;;;;;;;34.50;19.95;;;;;;;7.64;73.90;100506.15;1782211;80;21217;-75
2021/10/16 02:51:34;;;;;;;33.78;19.10;;;;;;;7.66;73.67;100508.70;1783468;80;21398;-75
2021/10/16 02:54:39;;;;;;;35.68;18.80;;;;;;;7.66;73.52;100500.54;1783532;80;21225;-75
2021/10/16 02:57:47;;;;;;;31.50;18.23;;;;;;;7.68;73.43;100495.81;1782480;80;21392;-75
2021/10/16 03:00:55;;;;;;;30.12;16.85;;;;;;;7.69;73.35;100497.52;1782662;80;21419;-76
2021/10/16 03:04:00;;;;;;;36.45;17.92;;;;;;;7.69;73.16;100495.66;1783309;80;21299;-75
2021/10/16 03:07:07;;;;;;;34.38;18.35;;;;;;;7.70;72.96;100493.78;1783251;80;21336;-76
2021/10/16 03:10:14;;;;;;;40.52;19.62;;;;;;;7.71;72.88;100488.69;1783358;80;21288;-76
2021/10/16 03:13:20;;;;;;;34.20;19.10;;;;;;;7.73;72.66;100494.84;1782201;80;21216;-76
2021/10/16 03:16:27;;;;;;;43.60;19.55;;;;;;;7.75;72.47;100498.27;1781848;80;21739;-76
2021/10/16 03:19:34;;;;;;;31.07;18.17;;;;;;;7.77;72.35;100492.17;1782035;80;21835;-76
2021/10/16 03:22:38;;;;;;;37.80;18.20;;;;;;;7.78;72.19;100485.71;1783439;80;21296;-75
2021/10/16 03:25:43;;;;;;;44.63;20.05;;;;;;;7.78;72.09;100470.73;1783265;80;21804;-75
2021/10/16 03:28:49;;;;;;;41.80;20.15;;;;;;;7.74;71.95;100467.97;1781850;80;21343;-75
2021/10/16 03:31:59;;;;;;;32.55;19.07;;;;;;;7.69;71.88;100473.02;1781781;80;21213;-75
2021/10/16 03:35:05;;;;;;;34.78;18.60;;;;;;;7.66;71.98;100477.40;1781885;80;21337;-75
2021/10/16 03:38:11;;;;;;;38.45;20.77;;;;;;;7.62;71.97;100477.34;1782909;80;21229;-76
2021/10/16 03:41:17;;;;;;;35.35;18.92;;;;;;;7.59;71.87;100480.40;1781709;80;21288;-75
2021/10/16 03:44:24;;;;;;;41.88;20.95;;;;;;;7.56;71.86;100483.41;1783285;80;21193;-75
2021/10/16 03:47:30;;;;;;;41.53;21.20;;;;;;;7.53;71.91;100481.88;1783822;80;21369;-75
2021/10/16 03:50:35;;;;;;;35.60;19.50;;;;;;;7.49;71.99;100475.02;1785355;80;21358;-75
2021/10/16 03:53:41;;;;;;;47.10;21.02;;;;;;;7.48;72.04;100479.23;1783760;80;21164;-75
2021/10/16 03:56:47;;;;;;;29.87;17.25;;;;;;;7.46;72.13;100469.02;1783796;80;21294;-75
2021/10/16 03:59:53;;;;;;;36.38;20.00;;;;;;;7.40;72.24;100471.34;1783965;80;21362;-75
2021/10/16 04:03:06;;;;;;;40.67;21.55;;;;;;;7.36;72.43;100478.09;1785380;80;21783;-76
2021/10/16 04:06:10;;;;;;;38.17;20.20;;;;;;;7.34;72.58;100469.23;1785163;80;21846;-75
2021/10/16 04:09:15;;;;;;;41.13;21.48;;;;;;;7.32;72.76;100473.09;1783738;80;21211;-75
2021/10/16 04:12:21;;;;;;;39.55;22.17;;;;;;;7.29;72.94;100467.47;1783843;80;21770;-74
2021/10/16 04:15:27;;;;;;;37.85;20.82;;;;;;;7.28;73.09;100463.02;1785400;80;21805;-74
2021/10/16 04:18:33;;;;;;;36.95;21.82;;;;;;;7.30;73.16;100459.66;1785123;80;21298;-74
2021/10/16 04:21:38;;;;;;;40.20;22.15;;;;;;;7.33;73.18;100459.84;1785157;80;21294;-75
2021/10/16 04:24:44;;;;;;;35.23;20.02;;;;;;;7.35;73.11;100459.20;1785257;80;21291;-75
2021/10/16 04:27:50;;;;;;;42.40;22.90;;;;;;;7.36;73.06;100456.31;1785091;80;21362;-75
2021/10/16 04:30:57;;;;;;;40.83;21.95;;;;;;;7.37;73.02;100459.38;1785312;80;21307;-76
2021/10/16 04:34:04;;;;;;;41.68;20.77;;;;;;;7.40;73.05;100461.81;1785454;80;21290;-76
2021/10/16 04:37:09;;;;;;;38.95;20.77;;;;;;;7.43;73.04;100457.44;1785318;80;21822;-76
2021/10/16 04:40:18;;;;;;;38.53;20.30;;;;;;;7.47;73.03;100454.39;1784318;80;21309;-75
2021/10/16 04:43:24;;;;;;;34.92;19.95;;;;;;;7.51;72.87;100452.57;1785223;80;21294;-76
2021/10/16 04:46:31;;;;;;;38.08;20.32;;;;;;;7.56;72.81;100454.33;1783977;80;21885;-76
2021/10/16 04:49:38;;;;;;;37.45;20.70;;;;;;;7.62;72.75;100446.92;1780370;80;21329;-75
2021/10/16 04:52:44;;;;;;;37.67;20.52;;;;;;;7.68;72.60;100441.36;1783484;80;21218;-75
2021/10/16 04:55:52;;;;;;;35.58;19.25;;;;;;;7.73;72.39;100434.95;1783475;80;21318;-75
2021/10/16 04:58:58;;;;;;;35.92;19.75;;;;;;;7.76;72.36;100431.89;1782985;80;21326;-76
2021/10/16 05:02:03;;;;;;;36.88;20.48;;;;;;;7.82;72.28;100427.72;1781882;80;21339;-75
2021/10/16 05:05:08;;;;;;;44.20;19.82;;;;;;;7.87;72.20;100427.59;1781994;80;21845;-75
2021/10/16 05:08:14;;;;;;;40.30;20.20;;;;;;;7.93;72.07;100426.96;1782019;80;21187;-75
2021/10/16 05:11:20;;;;;;;34.60;18.37;;;;;;;8.01;71.89;100431.64;1783463;80;21357;-76
2021/10/16 05:17:38;;;;;;;37.50;20.25;;;;;;;8.17;71.26;100429.55;1767781;81;21279;-76
2021/10/16 05:20:46;;;;;;;38.42;20.27;;;;;;;8.22;70.86;100428.56;1766399;81;21714;-76
2021/10/16 05:23:53;;;;;;;35.50;19.35;;;;;;;8.28;70.58;100432.52;1767848;81;21790;-76
2021/10/16 05:27:01;;;;;;;29.60;18.07;;;;;;;8.30;70.33;100424.55;1768101;81;21275;-75
2021/10/16 05:30:07;;;;;;;35.73;20.35;;;;;;;8.37;70.02;100437.91;1767186;81;21889;-76
2021/10/16 05:33:12;;;;;;;37.45;18.15;;;;;;;8.42;70.09;100429.25;1767772;81;21212;-76
2021/10/16 05:36:19;;;;;;;31.00;17.70;;;;;;;8.50;69.88;100438.85;1767846;81;21910;-76
2021/10/16 05:39:25;;;;;;;31.85;17.80;;;;;;;8.58;69.68;100436.19;1767703;81;21802;-76
2021/10/16 05:42:31;;;;;;;39.75;18.35;;;;;;;8.64;69.24;100434.17;1767847;81;21156;-76
2021/10/16 05:45:37;;;;;;;37.13;19.20;;;;;;;8.70;69.15;100434.03;1766481;81;21327;-76
2021/10/16 05:48:42;;;;;;;32.23;18.52;;;;;;;8.79;69.17;100437.16;1766478;81;21160;-75
2021/10/16 05:51:48;;;;;;;41.25;20.10;;;;;;;8.89;68.92;100427.02;1767950;81;21739;-75
2021/10/16 05:54:55;;;;;;;31.35;16.80;;;;;;;9.00;68.34;100434.05;1767747;81;21283;-75
2021/10/16 05:58:01;;;;;;;33.28;17.35;;;;;;;9.07;67.77;100424.17;1767854;81;21288;-75
2021/10/16 06:01:09;;;;;;;31.35;17.90;;;;;;;9.15;67.83;100420.63;1748924;81;21868;-75
2021/10/16 06:04:16;;;;;;;26.85;15.80;;;;;;;9.26;67.36;100411.28;1736028;81;21937;-75
2021/10/16 06:07:23;;;;;;;28.12;16.07;;;;;;;9.36;66.57;100410.15;1737328;82;21343;-75
2021/10/16 06:10:28;;;;;;;31.40;17.42;;;;;;;9.43;66.32;100409.81;1737044;82;21222;-75
2021/10/16 06:13:34;;;;;;;33.30;18.17;;;;;;;9.51;65.64;100413.08;1735951;81;21246;-75
2021/10/16 06:16:40;;;;;;;31.57;16.93;;;;;;;9.58;65.53;100408.64;1732363;81;21374;-75
2021/10/16 06:19:47;;;;;;;28.80;15.98;;;;;;;9.65;64.93;100404.23;1719083;83;21311;-76
2021/10/16 06:22:54;;;;;;;32.73;16.05;;;;;;;9.73;65.12;100400.64;1697229;84;21763;-76
2021/10/16 06:26:02;;;;;;;26.00;15.10;;;;;;;9.85;64.67;100403.41;1697237;84;21861;-75
2021/10/16 06:29:07;;;;;;;31.02;17.15;;;;;;;9.95;64.79;100401.88;1697162;84;21330;-76
2021/10/16 06:32:13;;;;;;;32.98;15.88;;;;;;;10.04;64.22;100394.02;1695713;84;21406;-75
2021/10/16 06:35:07;;;;;;;34.93;15.40;;;;;;;10.14;64.05;100386.50;1697289;84;21326;-76
2021/10/16 06:38:00;;;;;;;32.17;15.95;;;;;;;10.26;63.97;100386.16;1697191;84;21366;-75
2021/10/16 06:41:05;;;;;;;25.87;15.90;;;;;;;10.36;63.81;100384.12;1696095;84;21338;-76
2021/10/16 06:44:12;;;;;;;26.07;14.10;;;;;;;10.44;63.50;100394.55;1736082;82;22439;-76
2021/10/16 06:47:23;;;;;;;25.55;13.85;;;;;;;10.57;63.34;100386.30;1737692;82;21868;-75
2021/10/16 06:50:32;;;;;;;30.77;14.65;;;;;;;10.67;63.50;100388.31;1735147;82;21190;-76
2021/10/16 06:53:38;;;;;;;35.83;15.63;;;;;;;10.81;63.09;100373.91;1738349;82;21261;-76
2021/10/16 06:56:43;;;;;;;27.58;14.75;;;;;;;10.95;63.13;100371.80;1738323;82;21249;-76
2021/10/16 06:59:51;;;;;;;27.85;14.28;;;;;;;11.09;62.99;100371.58;1737047;81;21201;-76
2021/10/16 07:02:58;;;;;;;31.05;15.58;;;;;;;11.25;62.56;100380.25;1737587;82;21344;-76
2021/10/16 07:06:05;;;;;;;30.25;14.98;;;;;;;11.31;62.29;100378.15;1738495;82;22566;-76
2021/10/16 07:09:11;;;;;;;31.10;13.03;;;;;;;11.41;61.62;100380.66;1736693;81;21253;-75
2021/10/16 07:12:18;;;;;;;25.45;13.58;;;;;;;11.48;62.06;100385.77;1737474;82;21328;-75
2021/10/16 07:15:24;;;;;;;29.60;13.05;;;;;;;11.54;61.73;100376.82;1738447;82;21313;-75
2021/10/16 07:18:30;;;;;;;25.62;12.15;;;;;;;11.59;60.87;100370.28;1736446;82;21265;-75
2021/10/16 07:21:36;;;;;;;26.57;12.78;;;;;;;11.63;61.20;100370.25;1737497;82;21182;-75
2021/10/16 07:24:41;;;;;;;24.50;12.73;;;;;;;11.71;61.01;100364.69;1736276;82;21874;-75
2021/10/16 07:27:47;;;;;;;19.62;11.63;;;;;;;11.76;60.68;100372.37;1737661;82;21261;-75
2021/10/16 07:30:52;;;;;;;24.12;12.78;;;;;;;11.83;60.68;100370.65;1737824;82;21729;-75
2021/10/16 07:34:00;;;;;;;27.45;12.33;;;;;;;11.89;60.33;100364.42;1736767;82;21213;-75
2021/10/16 07:37:05;;;;;;;25.72;12.80;;;;;;;11.95;60.64;100356.86;1737763;82;21234;-75
2021/10/16 07:40:12;;;;;;;21.25;13.18;;;;;;;12.03;60.33;100366.36;1737903;82;21796;-75
2021/10/16 07:43:17;;;;;;;23.55;12.75;;;;;;;12.08;60.28;100369.92;1736565;82;21254;-75
2021/10/16 07:46:23;;;;;;;20.55;11.18;;;;;;;12.13;60.23;100359.77;1736369;82;21218;-75
2021/10/16 07:49:29;;;;;;;21.17;11.85;;;;;;;12.19;60.55;100355.79;1736487;82;21379;-75
2021/10/16 07:52:35;;;;;;;23.15;11.90;;;;;;;12.32;60.82;100335.93;1736974;82;21915;-75
2021/10/16 07:55:40;;;;;;;20.92;12.25;;;;;;;12.50;60.48;100341.06;1736512;82;21355;-75
2021/10/16 07:58:45;;;;;;;22.65;12.00;;;;;;;12.69;60.44;100340.50;1737823;82;21320;-75
2021/10/16 08:01:50;;;;;;;27.13;13.22;;;;;;;12.81;59.49;100340.89;1736508;81;21745;-75
2021/10/16 08:04:58;;;;;;;22.73;10.63;;;;;;;12.81;59.20;100346.38;1736273;82;21340;-75
2021/10/16 08:08:03;;;;;;;24.20;12.23;;;;;;;12.81;59.55;100347.75;1737785;82;21186;-75
2021/10/16 08:11:08;;;;;;;23.20;12.68;;;;;;;12.86;59.74;100349.41;1737750;82;21237;-76
2021/10/16 08:14:14;;;;;;;19.52;11.50;;;;;;;12.95;59.76;100346.05;1736113;82;21213;-76
2021/10/16 08:17:13;;;;;;;16.15;9.90;;;;;;;13.04;59.65;100338.03;1736489;82;21832;-75
2021/10/16 08:20:20;;;;;;;17.20;10.48;;;;;;;13.18;59.54;100336.30;1736518;81;22586;-76
2021/10/16 08:23:26;;;;;;;21.35;10.78;;;;;;;13.31;59.23;100335.09;1736899;82;21314;-76
2021/10/16 08:26:33;;;;;;;20.45;10.98;;;;;;;13.43;59.08;100334.08;1737661;82;21840;-76
2021/10/16 08:29:39;;;;;;;19.00;11.38;;;;;;;13.52;58.75;100331.02;1737737;82;21733;-76
2021/10/16 08:32:44;;;;;;;21.37;11.38;;;;;;;13.66;59.21;100316.89;1737366;82;21344;-76
2021/10/16 08:35:51;;;;;;;22.48;11.50;;;;;;;13.79;58.74;100314.80;1737973;82;21301;-76
2021/10/16 08:38:57;;;;;;;16.42;10.00;;;;;;;13.89;58.23;100311.72;1737938;82;21194;-76
2021/10/16 08:42:03;;;;;;;19.85;11.95;;;;;;;13.96;57.99;100323.61;1737934;82;21356;-75
2021/10/16 08:45:11;;;;;;;18.67;11.00;;;;;;;14.02;57.49;100322.31;1737961;82;21327;-75
2021/10/16 08:48:16;;;;;;;19.17;11.40;;;;;;;14.05;57.03;100320.52;1737833;82;21602;-75
2021/10/16 08:51:22;;;;;;;15.85;9.93;;;;;;;14.08;57.08;100315.69;1718305;82;21907;-75
2021/10/16 08:54:28;;;;;;;21.60;10.93;;;;;;;14.12;57.24;100312.34;1736458;82;21875;-75
2021/10/16 08:57:43;;;;;;;18.73;10.80;;;;;;;14.25;56.87;100307.45;1737866;82;21617;-75
2021/10/16 09:00:54;;;;;;;21.00;10.68;;;;;;;14.35;56.87;100305.22;1737309;81;21356;-75
2021/10/16 09:04:01;;;;;;;17.10;10.68;;;;;;;14.43;56.67;100294.56;1736452;82;21225;-75
2021/10/16 09:07:07;;;;;;;20.37;11.03;;;;;;;14.49;56.50;100293.27;1736461;82;21328;-75
2021/10/16 09:10:30;;;;;;;21.48;11.43;;;;;;;14.56;56.24;100285.89;1736509;82;21339;-75
2021/10/16 09:13:46;;;;;;;23.67;11.28;;;;;;;14.63;56.17;100287.30;1737179;82;21366;-75
2021/10/16 09:16:54;;;;;;;16.73;10.25;;;;;;;14.71;55.58;100284.91;1737896;82;21186;-75
2021/10/16 09:20:00;;;;;;;17.37;10.25;;;;;;;14.76;55.59;100280.48;1739585;81;21324;-76
2021/10/16 09:23:17;;;;;;;21.60;10.18;;;;;;;14.80;55.60;100275.42;1746228;82;21316;-75
2021/10/16 09:26:24;;;;;;;15.55;9.88;;;;;;;14.89;55.74;100278.33;1746491;82;21827;-75
2021/10/16 09:29:30;;;;;;;17.85;10.63;;;;;;;15.00;55.65;100274.97;1712498;84;21866;-76
2021/10/16 09:32:36;;;;;;;20.55;11.10;;;;;;;15.16;54.97;100275.69;1712485;84;21315;-75
2021/10/16 09:35:45;;;;;;;19.20;10.48;;;;;;;15.24;54.36;100264.45;1711553;84;21394;-75
2021/10/16 09:38:50;;;;;;;20.65;11.25;;;;;;;15.30;54.48;100260.89;1711172;84;21315;-75
2021/10/16 09:41:55;;;;;;;19.98;11.15;;;;;;;15.38;54.16;100253.78;1712443;84;21346;-75
2021/10/16 09:45:03;;;;;;;21.62;10.43;;;;;;;15.50;53.88;100250.74;1711280;84;21783;-75
2021/10/16 09:48:10;;;;;;;22.43;10.87;;;;;;;15.63;53.79;100257.34;1712919;84;21315;-75
2021/10/16 09:51:16;;;;;;;21.40;10.70;;;;;;;15.72;53.55;100247.84;1711325;84;21422;-75
2021/10/16 09:54:23;;;;;;;17.87;10.28;;;;;;;15.77;53.37;100250.81;1711953;84;21264;-74
2021/10/16 09:57:37;;;;;;;20.92;10.60;;;;;;;15.87;53.29;100244.87;1841766;76;28552;-76
2021/10/16 10:00:43;;;;;;;24.10;10.53;;;;;;;15.92;53.09;100247.30;1750231;82;21370;-76
2021/10/16 10:03:50;;;;;;;24.30;10.65;;;;;;;15.98;53.32;100245.06;1736234;82;21319;-76
2021/10/16 10:06:57;;;;;;;19.77;10.35;;;;;;;16.03;53.17;100241.13;1749413;82;21317;-76
2021/10/16 10:09:56;;;;;;;21.05;10.10;;;;;;;16.06;53.03;100239.33;1736735;82;21875;-76
2021/10/16 10:12:50;;;;;;;18.65;9.68;;;;;;;16.08;53.08;100224.78;1704879;82;21184;-76
2021/10/16 10:15:55;;;;;;;19.45;10.70;;;;;;;16.13;52.89;100230.19;1750014;82;21358;-75
2021/10/16 10:19:01;;;;;;;19.42;10.32;;;;;;;16.14;52.76;100224.98;1736746;82;21308;-75
2021/10/16 10:22:06;;;;;;;19.20;9.80;;;;;;;16.18;53.05;100227.63;1750799;82;21192;-75
2021/10/16 10:25:30;;;;;;;19.37;9.58;;;;;;;16.24;52.81;100230.93;1750943;82;21294;-75
2021/10/16 10:29:04;;;;;;;20.65;10.15;;;;;;;16.26;52.92;100224.11;1732527;82;21298;-75
2021/10/16 10:32:12;;;;;;;23.12;9.75;;;;;;;16.28;52.82;100212.34;1736798;82;21486;-75
2021/10/16 10:35:18;;;;;;;16.97;10.15;;;;;;;16.36;53.02;100214.00;1750902;82;21720;-75
2021/10/16 10:38:40;;;;;;;17.90;9.33;;;;;;;16.41;52.74;100206.45;1736960;82;21177;-75
2021/10/16 10:41:46;;;;;;;17.73;9.53;;;;;;;16.42;52.89;100197.98;1749369;81;21235;-75
2021/10/16 10:44:55;;;;;;;21.70;10.10;;;;;;;16.48;52.85;100205.38;1750921;82;21310;-75
2021/10/16 10:48:19;;;;;;;27.82;11.40;;;;;;;16.50;52.73;100196.34;1735552;82;21193;-75
2021/10/16 10:51:38;;;;;;;20.40;9.73;;;;;;;16.53;52.65;100189.55;1750868;82;21325;-75
2021/10/16 10:54:46;;;;;;;17.48;9.73;;;;;;;16.56;52.79;100189.97;1751001;82;21286;-75
2021/10/16 10:57:59;;;;;;;16.73;9.50;;;;;;;16.61;52.48;100188.77;1738716;82;21688;-75
2021/10/16 11:01:05;;;;;;;14.68;8.33;;;;;;;16.67;52.70;100184.81;1771109;81;21336;-75
2021/10/16 11:04:10;;;;;;;13.65;8.38;;;;;;;16.73;52.51;100172.92;1771865;81;21233;-75
2021/10/16 11:07:18;;;;;;;17.12;8.40;;;;;;;16.82;52.58;100177.13;1771122;81;21300;-75
2021/10/16 11:10:23;;;;;;;22.62;10.13;;;;;;;16.93;52.33;100179.17;1771462;81;21834;-75
2021/10/16 11:13:28;;;;;;;17.52;9.30;;;;;;;17.03;52.11;100178.19;1769926;79;21954;-75
2021/10/16 11:16:34;;;;;;;24.85;9.00;;;;;;;17.15;51.38;100169.17;1771215;81;21327;-75
2021/10/16 11:19:56;;;;;;;17.15;8.75;;;;;;;17.19;51.11;100164.91;1771270;81;21201;-75
2021/10/16 11:23:02;;;;;;;22.42;10.53;;;;;;;17.23;50.94;100162.01;1771294;81;21308;-75
2021/10/16 11:26:12;;;;;;;25.10;9.20;;;;;;;17.28;50.82;100160.80;1771249;81;21292;-75
2021/10/16 11:29:18;;;;;;;16.17;8.60;;;;;;;17.35;50.84;100165.19;1770041;81;21295;-75
2021/10/16 11:32:31;;;;;;;19.15;9.28;;;;;;;17.43;50.70;100163.23;1771379;81;21896;-75
2021/10/16 11:35:36;;;;;;;19.55;8.95;;;;;;;17.47;50.34;100151.50;1769872;81;21339;-75
2021/10/16 11:38:50;;;;;;;15.72;8.60;;;;;;;17.50;50.39;100153.83;1769941;81;21386;-75
2021/10/16 11:42:01;;;;;;;21.50;9.15;;;;;;;17.53;50.39;100151.97;1771376;80;21304;-75
2021/10/16 11:45:07;;;;;;;15.78;8.43;;;;;;;17.52;50.39;100148.91;1771168;81;21299;-75
2021/10/16 11:48:15;;;;;;;20.23;8.08;;;;;;;17.53;50.34;100142.83;1770510;81;21264;-75
2021/10/16 11:51:21;;;;;;;25.43;9.30;;;;;;;17.54;50.37;100148.67;1771329;81;21851;-75
2021/10/16 11:54:28;;;;;;;19.27;8.35;;;;;;;17.53;50.37;100147.83;1771226;81;21193;-75
2021/10/16 11:57:34;;;;;;;23.83;9.05;;;;;;;17.53;50.43;100142.83;1771702;79;21894;-76
2021/10/16 12:00:41;;;;;;;21.42;8.23;;;;;;;17.50;50.57;100146.91;1770595;81;21907;-75
2021/10/16 12:03:51;;;;;;;21.02;7.65;;;;;;;17.51;50.66;100144.98;1769976;81;21271;-75
2021/10/16 12:06:59;;;;;;;17.90;7.47;;;;;;;17.50;50.46;100139.13;1770244;81;21295;-75
2021/10/16 12:10:26;;;;;;;13.78;7.17;;;;;;;17.47;50.22;100141.82;1771348;81;21828;-74
2021/10/16 12:13:48;;;;;;;14.13;6.62;;;;;;;17.42;50.19;100136.66;1770572;79;21296;-75
2021/10/16 12:16:54;;;;;;;23.73;7.55;;;;;;;17.39;50.29;100136.56;1771258;81;21819;-75
2021/10/16 12:20:05;;;;;;;23.50;7.10;;;;;;;17.38;50.26;100137.64;1771311;81;21307;-75
2021/10/16 12:23:11;;;;;;;11.12;6.85;;;;;;;17.36;50.37;100135.63;1771497;81;21284;-75
2021/10/16 12:26:43;;;;;;;16.12;7.47;;;;;;;17.34;50.29;100128.95;1771431;81;21276;-75
2021/10/16 12:29:49;;;;;;;;;;;;;;;17.36;50.08;100129.59;1772612;79;21311;-75
2021/10/16 12:33:02;;;;;;;14.30;6.42;;;;;;;17.38;49.90;100132.95;1771548;81;20197;-75
2021/10/16 12:36:10;;;;;;;14.38;6.53;;;;;;;17.38;49.99;100130.73;1771398;81;21362;-75
2021/10/16 12:39:17;;;;;;;14.75;6.90;;;;;;;17.41;49.36;100132.18;1770155;81;21209;-76
2021/10/16 12:42:30;;;;;;;23.73;7.90;;;;;;;17.43;49.36;100135.59;1770918;81;21795;-76
2021/10/16 12:45:47;;;;;;;15.78;6.65;;;;;;;17.44;49.35;100140.03;1771415;81;21335;-75
2021/10/16 12:48:59;;;;;;;18.10;7.12;;;;;;;17.45;49.31;100134.81;1769940;81;21293;-75
2021/10/16 12:52:04;;;;;;;19.82;6.28;;;;;;;17.44;49.37;100145.03;1769909;81;21335;-75
2021/10/16 12:55:24;;;;;;;17.52;7.40;;;;;;;17.41;49.42;100138.59;1771418;81;21677;-75
2021/10/16 12:58:29;;;;;;;20.85;7.40;;;;;;;17.38;49.35;100130.19;1770342;80;21193;-76
2021/10/16 13:01:36;;;;;;;25.25;7.45;;;;;;;17.34;49.47;100133.62;1783742;80;21613;-75
2021/10/16 13:04:53;;;;;;;13.15;7.12;;;;;;;17.29;49.71;100130.70;1785703;80;21304;-75
2021/10/16 13:07:59;;;;;;;16.90;6.83;;;;;;;17.25;50.02;100126.14;1785474;80;21303;-75
2021/10/16 13:11:05;;;;;;;11.95;6.62;;;;;;;17.23;50.42;100131.60;1779807;80;21187;-75
2021/10/16 13:14:10;;;;;;;20.12;7.03;;;;;;;17.20;50.66;100134.27;1769698;80;21280;-75
2021/10/16 13:17:17;;;;;;;17.77;7.08;;;;;;;17.17;50.76;100132.48;1713471;83;21180;-75
2021/10/16 13:20:23;;;;;;;23.05;7.37;;;;;;;17.13;51.05;100135.41;1699990;83;21287;-75
2021/10/16 13:23:30;;;;;;;17.70;6.75;;;;;;;17.08;51.10;100131.39;1717788;83;21286;-75
2021/10/16 13:26:36;;;;;;;18.25;7.50;;;;;;;17.03;51.34;100128.95;1687818;83;21322;-76
2021/10/16 13:29:41;;;;;;;18.80;7.30;;;;;;;17.01;51.44;100129.19;1700402;83;21306;-76
2021/10/16 13:32:48;;;;;;;16.12;7.08;;;;;;;16.97;51.46;100130.70;1708144;83;21976;-76
2021/10/16 13:35:54;;;;;;;24.50;7.45;;;;;;;16.94;51.58;100131.67;1700032;84;21211;-76
2021/10/16 13:38:59;;;;;;;21.85;7.20;;;;;;;16.91;51.78;100128.84;1699828;84;21353;-76
2021/10/16 13:42:06;;;;;;;23.10;7.87;;;;;;;16.85;51.73;100126.44;1699927;84;21849;-76
2021/10/16 13:45:16;;;;;;;19.57;8.50;;;;;;;16.80;51.72;100130.94;1699196;84;21223;-76
2021/10/16 13:48:22;;;;;;;17.35;8.03;;;;;;;16.75;51.78;100130.72;1700049;84;21841;-76
2021/10/16 13:51:28;;;;;;;34.67;15.15;;;;;;;16.71;52.06;100127.55;1699903;84;21984;-76
2021/10/16 13:54:34;;;;;;;31.10;14.58;;;;;;;16.67;52.42;100133.73;1700032;84;21199;-76
2021/10/16 13:57:40;;;;;;;37.73;16.15;;;;;;;16.56;52.65;100131.98;1698596;84;21195;-76
2021/10/16 14:00:46;;;;;;;32.58;14.93;;;;;;;16.43;52.93;100125.13;1696782;84;21377;-75
2021/10/16 14:03:52;;;;;;;32.15;15.98;;;;;;;16.31;53.20;100126.34;1704692;84;21341;-76
2021/10/16 14:06:58;;;;;;;27.58;14.83;;;;;;;16.17;53.49;100127.45;1704966;84;21908;-76
2021/10/16 14:10:03;;;;;;;32.90;15.20;;;;;;;16.04;53.89;100135.25;1704178;84;21194;-76
2021/10/16 14:13:09;;;;;;;29.48;15.65;;;;;;;15.92;54.26;100133.37;1704860;84;21223;-76
2021/10/16 14:16:15;;;;;;;38.98;19.23;;;;;;;15.82;54.63;100129.67;1703672;84;21203;-75
2021/10/16 14:19:20;;;;;;;41.85;17.12;;;;;;;15.70;54.95;100128.09;1704849;84;21357;-76